Williamstown, Indiana
Current Conditions -  °F | °C
As of 9:45 PM on Saturday 27 Dec 2014 (Local Time) from KBAK Reporting Station
Moderate Rain Moderate Rain  
Wind Chill: 37°   Ceiling: 700
Heat Index: 43°   Visibility: 4mi
Dew Point: 41°   Wind: 10mph
Humidity: 93%   Direction: 310°NW
Pressure: 30.11"   Gusts: NA
Location:  39.3206°N, 85.4768°W
Report Text: KBAK 280245Z 31009KT 4SM RABR OVC007 06/05 A3011 RMK LAST
Loading
Personal Weather Stations






























Interactive Weather Map New forecast layout! Learn more

10-Day Weather Forecast

Advertisements
Track Severe Weather on mobile